createdAt,value
2019-02-06T00:02:08.699Z,16.67
2019-02-06T00:07:17.440Z,16.83
2019-02-06T00:12:24.009Z,16.73
2019-02-06T00:17:31.773Z,16.60
2019-02-06T00:22:39.124Z,16.80
2019-02-06T00:27:46.255Z,16.30
2019-02-06T00:32:54.018Z,15.37
2019-02-06T00:38:05.243Z,15.97
2019-02-06T00:43:13.467Z,15.63
2019-02-06T00:48:23.055Z,15.73
2019-02-06T00:53:31.320Z,15.30
2019-02-06T00:58:39.762Z,15.30
2019-02-06T01:03:46.658Z,15.07
2019-02-06T01:08:54.368Z,14.07
2019-02-06T01:14:01.253Z,14.83
2019-02-06T01:19:08.259Z,13.83
2019-02-06T01:24:15.756Z,13.77
2019-02-06T01:29:23.987Z,14.13
2019-02-06T01:34:31.804Z,15.40
2019-02-06T01:39:38.899Z,14.73
2019-02-06T01:44:46.423Z,14.10
2019-02-06T01:49:53.674Z,13.07
2019-02-06T01:55:03.403Z,15.53
2019-02-06T02:00:19.239Z,14.27
2019-02-06T02:05:27.258Z,14.13
2019-02-06T02:10:33.906Z,14.07
2019-02-06T02:15:41.554Z,15.47
2019-02-06T02:20:48.578Z,14.93
2019-02-06T02:25:55.547Z,14.20
2019-02-06T02:31:05.528Z,14.03
2019-02-06T02:36:16.239Z,14.40
2019-02-06T02:41:22.950Z,13.93
2019-02-06T02:46:29.993Z,14.17
2019-02-06T02:51:37.069Z,14.90
2019-02-06T02:56:44.768Z,16.17
2019-02-06T03:02:00.306Z,15.40
2019-02-06T03:07:07.351Z,15.80
2019-02-06T03:12:16.508Z,15.77
2019-02-06T03:17:25.752Z,15.77
2019-02-06T03:22:33.605Z,16.00
2019-02-06T03:27:41.357Z,16.13
2019-02-06T03:32:48.733Z,16.73
2019-02-06T03:37:54.870Z,16.10
2019-02-06T03:43:02.407Z,16.43
2019-02-06T03:48:09.134Z,16.20
2019-02-06T03:53:16.651Z,16.13
2019-02-06T03:58:24.186Z,16.63
2019-02-06T04:03:31.981Z,17.03
2019-02-06T04:08:40.248Z,16.57
2019-02-06T04:13:46.698Z,17.30
2019-02-06T04:18:55.745Z,16.40
2019-02-06T04:24:03.546Z,15.20
2019-02-06T04:29:11.915Z,16.67
2019-02-06T04:34:21.128Z,15.80
2019-02-06T04:39:30.199Z,16.43
2019-02-06T04:44:36.579Z,15.73
2019-02-06T04:49:45.141Z,16.07
2019-02-06T04:54:51.581Z,16.50
2019-02-06T04:59:59.050Z,15.90
2019-02-06T05:05:06.827Z,15.70
2019-02-06T05:10:14.132Z,16.40
2019-02-06T05:15:22.418Z,15.43
2019-02-06T05:20:36.817Z,16.70
2019-02-06T05:25:45.216Z,17.17
2019-02-06T05:30:53.060Z,15.83
2019-02-06T05:36:00.491Z,16.73
2019-02-06T05:41:08.879Z,16.57
2019-02-06T05:46:15.062Z,16.43
2019-02-06T05:51:23.282Z,16.83
2019-02-06T05:56:31.306Z,16.93
2019-02-06T06:01:38.544Z,16.53
2019-02-06T06:06:44.504Z,17.20
2019-02-06T06:11:52.527Z,17.17
2019-02-06T06:16:59.279Z,17.90
2019-02-06T06:22:06.870Z,17.77
2019-02-06T06:27:15.376Z,16.87
2019-02-06T06:32:22.907Z,17.57
2019-02-06T06:37:29.781Z,17.53
2019-02-06T06:42:36.913Z,17.80
2019-02-06T06:47:43.759Z,18.77
2019-02-06T06:52:51.852Z,18.57
2019-02-06T06:57:59.584Z,19.97
2019-02-06T07:03:06.858Z,17.17
2019-02-06T07:08:14.449Z,17.33
2019-02-06T07:13:22.675Z,17.63
2019-02-06T07:18:30.120Z,17.73
2019-02-06T07:23:36.453Z,18.27
2019-02-06T07:28:46.642Z,17.83
2019-02-06T07:33:53.939Z,17.77
2019-02-06T07:39:01.814Z,16.23
2019-02-06T07:44:07.843Z,15.00
2019-02-06T07:49:13.810Z,13.63
2019-02-06T07:54:21.546Z,13.10
2019-02-06T07:59:28.214Z,14.57
2019-02-06T08:04:35.237Z,13.53
2019-02-06T08:09:43.146Z,13.70
2019-02-06T08:14:50.724Z,13.67
2019-02-06T08:19:58.498Z,12.73
2019-02-06T08:25:06.633Z,13.77
2019-02-06T08:30:23.814Z,13.50
2019-02-06T08:35:31.374Z,14.10
2019-02-06T08:40:41.370Z,14.07
2019-02-06T08:45:47.707Z,16.67
2019-02-06T08:50:55.614Z,19.17
2019-02-06T08:56:03.356Z,20.67
2019-02-06T09:01:11.367Z,20.97
2019-02-06T09:06:18.032Z,23.27
2019-02-06T09:11:24.357Z,25.97
2019-02-06T09:16:31.996Z,25.47
2019-02-06T09:26:44.117Z,22.50
2019-02-06T09:31:52.132Z,23.33
2019-02-06T09:37:00.099Z,23.43
2019-02-06T09:42:06.268Z,22.57
2019-02-06T09:47:13.922Z,22.27
2019-02-06T09:52:21.693Z,22.57
2019-02-06T09:57:28.723Z,21.30
2019-02-06T10:02:34.863Z,21.13
2019-02-06T10:07:42.753Z,21.13
2019-02-06T10:12:49.194Z,20.87
2019-02-06T10:17:56.121Z,21.67
2019-02-06T10:23:03.840Z,21.10
2019-02-06T10:28:14.165Z,20.77
2019-02-06T10:33:22.386Z,21.03
2019-02-06T10:38:28.416Z,19.33
2019-02-06T10:43:35.869Z,21.57
2019-02-06T10:48:44.037Z,22.90
2019-02-06T10:53:51.979Z,20.33
2019-02-06T10:58:59.482Z,19.20
2019-02-06T11:04:07.439Z,19.67
2019-02-06T11:09:14.702Z,19.00
2019-02-06T11:14:22.479Z,20.97
2019-02-06T11:19:29.470Z,19.47
2019-02-06T11:24:36.393Z,21.73
2019-02-06T11:29:44.811Z,20.90
2019-02-06T11:34:51.190Z,22.97
2019-02-06T11:39:58.679Z,23.00
2019-02-06T11:45:05.340Z,21.47
2019-02-06T11:50:15.154Z,19.73
2019-02-06T11:55:23.786Z,18.17
2019-02-06T12:00:48.352Z,17.40
2019-02-06T12:05:54.846Z,21.97
2019-02-06T12:11:05.379Z,25.87
2019-02-06T12:16:11.738Z,27.37
2019-02-06T12:21:18.582Z,28.03
2019-02-06T12:26:24.677Z,29.40
2019-02-06T12:31:30.925Z,28.87
2019-02-06T12:36:38.053Z,29.57
2019-02-06T12:41:44.235Z,31.10
2019-02-06T12:46:51.261Z,25.90
2019-02-06T12:51:58.428Z,28.50
2019-02-06T12:57:06.347Z,28.53
2019-02-06T13:02:14.085Z,30.60
2019-02-06T13:07:21.090Z,28.23
2019-02-06T13:12:27.560Z,30.63
2019-02-06T13:17:35.586Z,27.87
2019-02-06T13:22:43.543Z,27.20
2019-02-06T13:27:51.885Z,23.80
2019-02-06T13:33:01.620Z,23.43
2019-02-06T13:38:08.879Z,22.40
2019-02-06T13:43:16.440Z,20.93
2019-02-06T13:48:24.338Z,20.83
2019-02-06T13:53:32.193Z,20.87
2019-02-06T13:58:38.968Z,17.83
2019-02-06T14:03:45.134Z,16.67
2019-02-06T14:08:52.970Z,17.80
2019-02-06T14:13:59.399Z,17.47
2019-02-06T14:19:07.448Z,16.67
2019-02-06T14:24:43.875Z,17.23
2019-02-06T14:30:37.306Z,17.93
2019-02-06T14:36:23.878Z,16.83
2019-02-06T14:41:44.705Z,17.87
2019-02-06T14:47:24.606Z,19.97
2019-02-06T14:53:17.408Z,20.40
2019-02-06T14:59:09.418Z,17.80
2019-02-06T15:04:52.131Z,19.77
2019-02-06T15:10:31.462Z,19.53
2019-02-06T15:15:45.044Z,18.90
2019-02-06T15:21:19.594Z,21.30
2019-02-06T15:27:05.735Z,19.03
2019-02-06T15:32:45.712Z,18.70
2019-02-06T15:38:38.947Z,18.30
2019-02-06T15:44:30.883Z,16.43
2019-02-06T15:49:54.099Z,15.37
2019-02-06T15:56:12.942Z,15.43
2019-02-06T16:01:41.551Z,15.33
2019-02-06T16:07:35.459Z,17.13
2019-02-06T16:13:19.139Z,17.33
2019-02-06T16:19:00.241Z,17.60
2019-02-06T16:24:53.122Z,16.90
2019-02-06T16:30:53.942Z,16.73
2019-02-06T16:36:45.906Z,14.73
2019-02-06T16:42:46.453Z,14.33
2019-02-06T16:48:01.093Z,14.63
2019-02-06T16:53:50.726Z,15.07
2019-02-06T16:59:39.946Z,14.10
2019-02-06T17:05:30.942Z,15.87
2019-02-06T17:10:58.503Z,15.80
2019-02-06T17:17:09.555Z,15.30
2019-02-06T17:22:38.227Z,16.53
2019-02-06T17:28:31.209Z,16.33
2019-02-06T17:34:07.216Z,17.13
2019-02-06T17:39:58.824Z,18.70
2019-02-06T17:46:04.951Z,20.67
2019-02-06T17:51:51.006Z,19.57
2019-02-06T17:56:57.360Z,20.23
2019-02-06T18:02:03.673Z,20.17
2019-02-06T18:07:12.127Z,20.97
2019-02-06T18:12:26.381Z,23.97
2019-02-06T18:17:28.548Z,21.83
2019-02-06T18:22:35.911Z,23.23
2019-02-06T18:27:45.711Z,25.07
2019-02-06T18:32:57.121Z,24.77
2019-02-06T18:38:04.938Z,22.57
2019-02-06T18:43:12.754Z,23.43
2019-02-06T18:48:23.211Z,24.60
2019-02-06T18:53:30.833Z,26.83
2019-02-06T18:58:38.729Z,27.53
2019-02-06T19:03:47.000Z,28.47
2019-02-06T19:08:55.110Z,27.80
2019-02-06T19:14:02.981Z,27.90
2019-02-06T19:19:24.655Z,27.70
2019-02-06T19:24:21.559Z,29.10
2019-02-06T19:29:31.022Z,31.20
2019-02-06T19:34:40.675Z,33.90
2019-02-06T19:39:49.670Z,52.97
2019-02-06T19:44:55.730Z,34.27
2019-02-06T19:50:08.366Z,37.73
2019-02-06T19:55:15.039Z,34.07
2019-02-06T20:00:27.990Z,33.67
2019-02-06T20:05:35.319Z,31.27
2019-02-06T20:10:47.440Z,33.40
2019-02-06T20:15:55.226Z,36.77
2019-02-06T20:21:03.115Z,31.90
2019-02-06T20:26:12.011Z,33.60
2019-02-06T20:31:18.983Z,30.73
2019-02-06T20:36:25.054Z,31.10
2019-02-06T20:41:31.429Z,32.33
2019-02-06T20:46:39.099Z,33.57
2019-02-06T20:51:46.710Z,33.03
2019-02-06T20:56:54.940Z,34.27
2019-02-06T21:02:01.412Z,35.27
2019-02-06T21:07:08.921Z,34.73
2019-02-06T21:12:16.838Z,36.73
2019-02-06T21:17:24.329Z,38.00
2019-02-06T21:22:31.537Z,39.80
2019-02-06T21:27:39.208Z,38.60
2019-02-06T21:32:49.150Z,38.70
2019-02-06T21:37:56.550Z,35.40
2019-02-06T21:43:04.519Z,37.40
2019-02-06T21:48:11.283Z,39.77
2019-02-06T21:53:17.645Z,39.03
2019-02-06T21:58:25.269Z,46.37
2019-02-06T22:03:31.857Z,47.77
2019-02-06T22:08:39.236Z,46.50
2019-02-06T22:13:54.918Z,47.43
2019-02-06T22:18:54.224Z,47.20
2019-02-06T22:24:01.952Z,46.03
2019-02-06T22:29:09.769Z,46.13
2019-02-06T22:34:16.662Z,46.60
2019-02-06T22:39:24.485Z,47.83
2019-02-06T22:44:32.367Z,48.87
2019-02-06T22:49:39.627Z,47.07
2019-02-06T22:54:46.556Z,43.97
2019-02-06T22:59:54.220Z,44.90
2019-02-06T23:05:04.323Z,45.50
2019-02-06T23:10:10.270Z,45.50
2019-02-06T23:15:18.951Z,45.03
2019-02-06T23:20:26.185Z,42.20
2019-02-06T23:25:32.842Z,44.03
2019-02-06T23:30:40.462Z,40.97
2019-02-06T23:35:47.661Z,42.43
2019-02-06T23:40:55.779Z,41.90
2019-02-06T23:46:03.549Z,38.80
2019-02-06T23:51:11.903Z,37.97
2019-02-06T23:56:19.310Z,36.70
